Time;durP1;ratioP1;P1;durP2;ratioP2;P2;SDS_P1;SDS_P2;PMS_P1;PMS_P2;Temp;Humidity;BMP_temperature;BMP_pressure;BME280_temperature;BME280_humidity;BME280_pressure;Samples;Min_cycle;Max_cycle;Signal;HPM_P1;HPM_P2
2024/03/09 00:02:26;;;;;;;;;;;;;;;;;;5070206;28;19970;-79
2024/03/09 00:04:55;;;;;;;;;;;;;;;;;;5070660;28;19936;-79
2024/03/09 00:07:23;;;;;;;;;;;;;;;;;;5069798;28;20406;-77
2024/03/09 00:09:50;;;;;;;;;;;;;;;;;;5067342;28;20001;-77
2024/03/09 00:12:19;;;;;;;;;;;;;;;;;;5066060;28;20288;-77
2024/03/09 00:14:47;;;;;;;;;;;;;;;;;;5069884;28;19979;-79
2024/03/09 00:17:16;;;;;;;;;;;;;;;;;;5068725;28;19936;-79
2024/03/09 00:19:43;;;;;;;;;;;;;;;;;;5069388;28;19932;-78
2024/03/09 00:22:11;;;;;;;;;;;;;;;;;;5069735;28;19981;-79
2024/03/09 00:24:39;;;;;;;;;;;;;;;;;;5069142;28;19935;-78
2024/03/09 00:27:07;;;;;;;;;;;;;;;;;;5065452;28;19929;-78
2024/03/09 00:29:34;;;;;;;;;;;;;;;;;;5061602;28;20729;-78
2024/03/09 00:32:01;;;;;;;;;;;;;;;;;;5069618;28;19928;-78
2024/03/09 00:34:28;;;;;;;;;;;;;;;;;;5069869;28;19997;-79
2024/03/09 00:36:57;;;;;;;;;;;;;;;;;;5068198;28;19932;-79
2024/03/09 00:39:24;;;;;;;;;;;;;;;;;;5069929;28;20402;-77
2024/03/09 00:41:51;;;;;;;;;;;;;;;;;;5072064;28;20362;-76
2024/03/09 00:44:18;;;;;;;;;;;;;;;;;;5074933;28;20402;-77
2024/03/09 00:46:45;;;;;;;;;;;;;;;;;;5068863;28;20016;-79
2024/03/09 00:49:13;;;;;;;;;;;;;;;;;;5069408;28;20333;-80
2024/03/09 00:51:40;;;;;;;;;;;;;;;;;;5068667;28;20399;-76
2024/03/09 00:54:07;;;;;;;;;;;;;;;;;;5068199;28;19983;-78
2024/03/09 00:56:34;;;;;;;;;;;;;;;;;;5068352;28;19985;-79
2024/03/09 00:59:01;;;;;;;;;;;;;;;;;;5067589;28;19932;-80
2024/03/09 01:01:29;;;;;;;;;;;;;;;;;;5068532;28;19972;-78
2024/03/09 01:03:57;;;;;;;;;;;;;;;;;;5067629;28;19928;-78
2024/03/09 01:06:24;;;;;;;;;;;;;;;;;;5060952;28;19933;-79
2024/03/09 01:08:51;;;;;;;;;;;;;;;;;;5064959;28;19979;-78
2024/03/09 01:11:18;;;;;;;;;;;;;;;;;;5064713;28;19995;-80
2024/03/09 01:13:46;;;;;;;;;;;;;;;;;;5059690;28;20456;-79
2024/03/09 01:16:13;;;;;;;;;;;;;;;;;;5061277;28;19951;-78
2024/03/09 01:18:43;;;;;;;;;;;;;;;;;;5064594;28;20375;-79
2024/03/09 01:21:10;;;;;;;;;;;;;;;;;;5073150;28;19982;-78
2024/03/09 01:23:37;;;;;;;;;;;;;;;;;;5068073;28;20041;-79
2024/03/09 01:26:04;;;;;;;;;;;;;;;;;;5067458;28;20449;-77
2024/03/09 01:28:31;;;;;;;;;;;;;;;;;;5064156;28;20354;-78
2024/03/09 01:31:00;;;;;;;;;;;;;;;;;;5066998;28;20466;-79
2024/03/09 01:33:27;;;;;;;;;;;;;;;;;;5065899;28;19932;-78
2024/03/09 01:35:54;;;;;;;;;;;;;;;;;;5065587;28;20015;-77
2024/03/09 01:38:22;;;;;;;;;;;;;;;;;;5066926;28;20387;-77
2024/03/09 01:40:49;;;;;;;;;;;;;;;;;;5066521;28;19936;-76
2024/03/09 01:43:16;;;;;;;;;;;;;;;;;;5066814;28;20318;-77
2024/03/09 01:45:44;;;;;;;;;;;;;;;;;;5066633;28;19928;-77
2024/03/09 01:48:12;;;;;;;;;;;;;;;;;;5067703;28;19933;-77
2024/03/09 01:50:39;;;;;;;;;;;;;;;;;;5069223;28;20007;-76
2024/03/09 01:53:07;;;;;;;;;;;;;;;;;;5061449;28;19929;-78
2024/03/09 01:55:34;;;;;;;;;;;;;;;;;;5067786;28;19935;-78
2024/03/09 01:58:02;;;;;;;;;;;;;;;;;;5071881;28;19935;-79
2024/03/09 02:00:29;;;;;;;;;;;;;;;;;;5071998;28;19979;-80
2024/03/09 02:02:56;;;;;;;;;;;;;;;;;;5071387;28;19967;-79
2024/03/09 02:05:24;;;;;;;;;;;;;;;;;;5071037;28;19924;-81
2024/03/09 02:07:52;;;;;;;;;;;;;;;;;;5059179;28;20487;-79
2024/03/09 02:10:19;;;;;;;;;;;;;;;;;;5067157;28;20403;-78
2024/03/09 02:12:46;;;;;;;;;;;;;;;;;;5059518;28;20035;-81
2024/03/09 02:15:16;;;;;;;;;;;;;;;;;;5063190;28;19932;-79
2024/03/09 02:17:43;;;;;;;;;;;;;;;;;;5070814;28;19974;-78
2024/03/09 02:20:11;;;;;;;;;;;;;;;;;;5066855;28;19928;-78
2024/03/09 02:22:38;;;;;;;;;;;;;;;;;;5069697;28;19933;-79
2024/03/09 02:25:05;;;;;;;;;;;;;;;;;;5069652;28;19982;-79
2024/03/09 02:27:32;;;;;;;;;;;;;;;;;;5069720;28;19935;-77
2024/03/09 02:29:59;;;;;;;;;;;;;;;;;;5065091;28;19932;-77
2024/03/09 02:32:27;;;;;;;;;;;;;;;;;;5062680;28;19932;-78
2024/03/09 02:34:54;;;;;;;;;;;;;;;;;;5069432;28;19940;-79
2024/03/09 02:37:21;;;;;;;;;;;;;;;;;;5067925;28;19933;-78
2024/03/09 02:39:48;;;;;;;;;;;;;;;;;;5070064;28;20426;-78
2024/03/09 02:42:15;;;;;;;;;;;;;;;;;;5069766;28;19928;-79
2024/03/09 02:44:42;;;;;;;;;;;;;;;;;;5067254;28;19972;-79
2024/03/09 02:47:11;;;;;;;;;;;;;;;;;;5070478;28;20353;-78
2024/03/09 02:49:38;;;;;;;;;;;;;;;;;;5070047;28;20027;-79
2024/03/09 02:52:05;;;;;;;;;;;;;;;;;;5068310;28;19967;-79
2024/03/09 02:54:33;;;;;;;;;;;;;;;;;;5069935;28;19928;-79
2024/03/09 02:57:00;;;;;;;;;;;;;;;;;;5068857;28;19974;-78
2024/03/09 02:59:28;;;;;;;;;;;;;;;;;;5070110;28;20317;-79
2024/03/09 03:01:55;;;;;;;;;;;;;;;;;;5068836;28;19932;-78
2024/03/09 03:04:21;;;;;;;;;;;;;;;;;;5069809;28;19933;-77
2024/03/09 03:06:48;;;;;;;;;;;;;;;;;;5067348;28;19932;-80
2024/03/09 03:09:18;;;;;;;;;;;;;;;;;;5070076;28;19936;-78
2024/03/09 03:11:45;;;;;;;;;;;;;;;;;;5067946;28;19998;-78
2024/03/09 03:14:12;;;;;;;;;;;;;;;;;;5069629;28;19928;-77
2024/03/09 03:16:39;;;;;;;;;;;;;;;;;;5067585;28;19988;-80
2024/03/09 03:19:07;;;;;;;;;;;;;;;;;;5069700;28;19947;-78
2024/03/09 03:21:34;;;;;;;;;;;;;;;;;;5063843;28;20343;-79
2024/03/09 03:24:01;;;;;;;;;;;;;;;;;;5068720;28;19932;-80
2024/03/09 03:26:30;;;;;;;;;;;;;;;;;;5068807;28;19931;-79
2024/03/09 03:28:57;;;;;;;;;;;;;;;;;;5069275;28;20402;-80
2024/03/09 03:31:24;;;;;;;;;;;;;;;;;;5069644;28;20391;-79
2024/03/09 03:33:51;;;;;;;;;;;;;;;;;;5067819;28;20690;-79
2024/03/09 03:36:19;;;;;;;;;;;;;;;;;;5069246;28;19939;-78
2024/03/09 03:38:46;;;;;;;;;;;;;;;;;;5069539;28;19936;-78
2024/03/09 03:41:14;;;;;;;;;;;;;;;;;;5068905;28;20417;-78
2024/03/09 03:43:42;;;;;;;;;;;;;;;;;;5068542;28;19950;-79
2024/03/09 03:46:11;;;;;;;;;;;;;;;;;;5065937;28;20234;-78
2024/03/09 03:48:39;;;;;;;;;;;;;;;;;;5069558;28;19929;-78
2024/03/09 03:51:07;;;;;;;;;;;;;;;;;;5063833;28;20462;-79
2024/03/09 03:53:34;;;;;;;;;;;;;;;;;;5064308;28;19928;-79
2024/03/09 03:56:01;;;;;;;;;;;;;;;;;;5067784;28;19936;-80
2024/03/09 03:58:28;;;;;;;;;;;;;;;;;;5067869;28;19929;-79
2024/03/09 04:00:56;;;;;;;;;;;;;;;;;;5069308;28;19974;-79
2024/03/09 04:03:26;;;;;;;;;;;;;;;;;;5068409;28;19928;-79
2024/03/09 04:05:53;;;;;;;;;;;;;;;;;;5065640;28;19935;-76
2024/03/09 04:08:21;;;;;;;;;;;;;;;;;;5060746;28;20021;-77
2024/03/09 04:10:50;;;;;;;;;;;;;;;;;;5066411;28;19932;-78
2024/03/09 04:13:20;;;;;;;;;;;;;;;;;;5066487;28;19958;-77
2024/03/09 04:15:47;;;;;;;;;;;;;;;;;;5066532;28;19928;-77
2024/03/09 04:18:14;;;;;;;;;;;;;;;;;;5067968;28;19932;-78
2024/03/09 04:20:41;;;;;;;;;;;;;;;;;;5068476;28;19933;-77
2024/03/09 04:23:08;;;;;;;;;;;;;;;;;;5067878;28;20016;-77
2024/03/09 04:25:38;;;;;;;;;;;;;;;;;;5067545;28;19929;-77
2024/03/09 04:28:06;;;;;;;;;;;;;;;;;;5069109;28;19928;-77
2024/03/09 04:30:34;;;;;;;;;;;;;;;;;;5063828;28;19928;-77
2024/03/09 04:33:02;;;;;;;;;;;;;;;;;;5067433;28;19953;-76
2024/03/09 04:35:29;;;;;;;;;;;;;;;;;;5067864;28;19979;-77
2024/03/09 04:37:57;;;;;;;;;;;;;;;;;;5068510;28;19963;-77
2024/03/09 04:40:24;;;;;;;;;;;;;;;;;;5067728;28;19968;-78
2024/03/09 04:42:51;;;;;;;;;;;;;;;;;;5066822;28;20403;-78
2024/03/09 04:45:25;;;;;;;;;;;;;;;;;;5068245;28;19975;-77
2024/03/09 04:47:52;;;;;;;;;;;;;;;;;;5067906;28;20241;-77
2024/03/09 04:50:19;;;;;;;;;;;;;;;;;;5068617;28;19928;-77
2024/03/09 04:52:47;;;;;;;;;;;;;;;;;;5067960;28;19933;-77
2024/03/09 04:55:14;;;;;;;;;;;;;;;;;;5064868;28;19934;-77
2024/03/09 04:57:43;;;;;;;;;;;;;;;;;;5059070;28;19928;-78
2024/03/09 05:00:14;;;;;;;;;;;;;;;;;;5064902;28;19928;-79
2024/03/09 05:02:41;;;;;;;;;;;;;;;;;;5065314;28;19929;-78
2024/03/09 05:05:08;;;;;;;;;;;;;;;;;;5067193;28;19928;-78
2024/03/09 05:07:35;;;;;;;;;;;;;;;;;;5067290;28;19928;-78
2024/03/09 05:10:03;;;;;;;;;;;;;;;;;;5062109;28;19986;-78
2024/03/09 05:12:30;;;;;;;;;;;;;;;;;;5057016;28;19935;-78
2024/03/09 05:14:58;;;;;;;;;;;;;;;;;;5067464;28;20026;-78
2024/03/09 05:17:25;;;;;;;;;;;;;;;;;;5064484;28;20331;-77
2024/03/09 05:19:52;;;;;;;;;;;;;;;;;;5068495;28;19982;-78
2024/03/09 05:22:19;;;;;;;;;;;;;;;;;;5066012;28;20076;-77
2024/03/09 05:24:46;;;;;;;;;;;;;;;;;;5069648;28;19933;-78
2024/03/09 05:27:13;;;;;;;;;;;;;;;;;;5072418;28;20417;-78
2024/03/09 05:29:40;;;;;;;;;;;;;;;;;;5072438;28;19928;-79
2024/03/09 05:32:07;;;;;;;;;;;;;;;;;;5072346;28;19928;-77
2024/03/09 05:34:37;;;;;;;;;;;;;;;;;;5071834;28;20299;-79
2024/03/09 05:37:06;;;;;;;;;;;;;;;;;;5071854;28;19928;-79
2024/03/09 05:39:36;;;;;;;;;;;;;;;;;;5072128;28;20051;-79
2024/03/09 05:42:04;;;;;;;;;;;;;;;;;;5072334;28;19974;-79
2024/03/09 05:44:32;;;;;;;;;;;;;;;;;;5069770;28;20360;-79
2024/03/09 05:47:01;;;;;;;;;;;;;;;;;;5072526;28;19955;-77
2024/03/09 05:49:28;;;;;;;;;;;;;;;;;;5071318;28;19936;-77
2024/03/09 05:51:55;;;;;;;;;;;;;;;;;;5070580;28;19991;-79
2024/03/09 05:54:22;;;;;;;;;;;;;;;;;;5071563;28;19979;-79
2024/03/09 05:56:51;;;;;;;;;;;;;;;;;;5066914;28;19955;-78
2024/03/09 05:59:18;;;;;;;;;;;;;;;;;;5072345;28;19939;-80
2024/03/09 06:01:45;;;;;;;;;;;;;;;;;;5073551;28;20027;-81
2024/03/09 06:04:12;;;;;;;;;;;;;;;;;;5073595;28;19929;-80
2024/03/09 06:06:40;;;;;;;;;;;;;;;;;;5072311;28;19928;-80
2024/03/09 06:09:07;;;;;;;;;;;;;;;;;;5073084;28;19928;-79
2024/03/09 06:11:34;;;;;;;;;;;;;;;;;;5072399;28;19974;-80
2024/03/09 06:14:04;;;;;;;;;;;;;;;;;;5071871;28;20356;-79
2024/03/09 06:16:31;;;;;;;;;;;;;;;;;;5067895;28;20288;-79
2024/03/09 06:18:58;;;;;;;;;;;;;;;;;;5064675;28;19974;-80
2024/03/09 06:21:25;;;;;;;;;;;;;;;;;;5071306;28;19928;-83
2024/03/09 06:23:56;;;;;;;;;;;;;;;;;;5068601;28;19925;-80
2024/03/09 06:26:23;;;;;;;;;;;;;;;;;;5066774;28;20357;-78
2024/03/09 06:28:50;;;;;;;;;;;;;;;;;;5074063;28;19928;-81
2024/03/09 06:31:17;;;;;;;;;;;;;;;;;;5079974;28;19932;-78
2024/03/09 06:33:46;;;;;;;;;;;;;;;;;;5093356;28;19932;-81
2024/03/09 06:36:15;;;;;;;;;;;;;;;;;;5077300;28;19924;-82
2024/03/09 06:38:42;;;;;;;;;;;;;;;;;;5075840;28;19943;-79
2024/03/09 06:41:10;;;;;;;;;;;;;;;;;;5072400;28;20397;-80
2024/03/09 06:43:38;;;;;;;;;;;;;;;;;;5070668;28;19932;-79
2024/03/09 06:46:08;;;;;;;;;;;;;;;;;;5073631;28;19928;-81
2024/03/09 06:48:35;;;;;;;;;;;;;;;;;;5073384;28;19974;-81
2024/03/09 06:51:03;;;;;;;;;;;;;;;;;;5070719;28;20292;-72
2024/03/09 06:53:30;;;;;;;;;;;;;;;;;;5070877;28;19933;-74
2024/03/09 06:56:03;;;;;;;;;;;;;;;;;;5070543;28;19955;-72
2024/03/09 06:58:30;;;;;;;;;;;;;;;;;;5070375;28;19931;-81
2024/03/09 07:00:57;;;;;;;;;;;;;;;;;;5069825;28;19971;-78
2024/03/09 07:03:25;;;;;;;;;;;;;;;;;;5070821;28;20458;-77
2024/03/09 07:05:52;;;;;;;;;;;;;;;;;;5068976;28;19928;-72
2024/03/09 07:08:21;;;;;;;;;;;;;;;;;;5069089;28;19937;-73
2024/03/09 07:10:48;;;;;;;;;;;;;;;;;;5069138;28;19932;-71
2024/03/09 07:13:18;;;;;;;;;;;;;;;;;;5069904;28;19982;-73
2024/03/09 07:15:47;;;;;;;;;;;;;;;;;;5067070;28;20292;-73
2024/03/09 07:18:14;;;;;;;;;;;;;;;;;;5070714;28;20023;-74
2024/03/09 07:20:42;;;;;;;;;;;;;;;;;;5070148;28;19932;-77
2024/03/09 07:23:12;;;;;;;;;;;;;;;;;;5075815;28;20071;-76
2024/03/09 07:25:41;;;;;;;;;;;;;;;;;;5074371;28;19928;-78
2024/03/09 07:28:11;;;;;;;;;;;;;;;;;;5069512;28;19933;-79
2024/03/09 07:30:40;;;;;;;;;;;;;;;;;;5071543;28;20492;-76
2024/03/09 07:33:07;;;;;;;;;;;;;;;;;;5071909;28;20388;-78
2024/03/09 07:35:37;;;;;;;;;;;;;;;;;;5071019;28;20411;-77
2024/03/09 07:38:05;;;;;;;;;;;;;;;;;;5071394;28;19981;-77
2024/03/09 07:40:33;;;;;;;;;;;;;;;;;;5071809;28;19928;-76
2024/03/09 07:43:02;;;;;;;;;;;;;;;;;;5073103;28;20027;-77
2024/03/09 07:45:29;;;;;;;;;;;;;;;;;;5071404;28;19928;-77
2024/03/09 07:47:58;;;;;;;;;;;;;;;;;;5068839;28;19929;-77
2024/03/09 07:50:27;;;;;;;;;;;;;;;;;;5051845;28;20375;-79
2024/03/09 07:52:54;;;;;;;;;;;;;;;;;;5065424;28;20027;-76
2024/03/09 07:55:21;;;;;;;;;;;;;;;;;;5064592;28;19968;-72
2024/03/09 07:57:48;;;;;;;;;;;;;;;;;;5066647;28;19938;-73
2024/03/09 08:00:18;;;;;;;;;;;;;;;;;;5049942;28;20316;-72
2024/03/09 08:02:46;;;;;;;;;;;;;;;;;;5065364;28;19934;-73
2024/03/09 08:05:14;;;;;;;;;;;;;;;;;;5062729;28;19928;-73
2024/03/09 08:07:42;;;;;;;;;;;;;;;;;;5062531;28;19982;-73
2024/03/09 08:10:09;;;;;;;;;;;;;;;;;;5060507;28;19958;-74
2024/03/09 08:12:36;;;;;;;;;;;;;;;;;;5060486;28;19964;-76
2024/03/09 08:15:04;;;;;;;;;;;;;;;;;;5068430;28;20391;-72
2024/03/09 08:17:31;;;;;;;;;;;;;;;;;;5068730;28;19951;-73
2024/03/09 08:19:59;;;;;;;;;;;;;;;;;;5061853;28;20032;-73
2024/03/09 08:22:26;;;;;;;;;;;;;;;;;;5065850;28;19928;-73
2024/03/09 08:24:53;;;;;;;;;;;;;;;;;;5067445;28;19975;-71
2024/03/09 08:27:20;;;;;;;;;;;;;;;;;;5062157;28;20367;-73
2024/03/09 08:29:49;;;;;;;;;;;;;;;;;;5064462;28;19924;-73
2024/03/09 08:32:17;;;;;;;;;;;;;;;;;;5061317;28;19925;-83
2024/03/09 08:34:44;;;;;;;;;;;;;;;;;;5061527;28;20451;-80
2024/03/09 08:37:11;;;;;;;;;;;;;;;;;;5058378;28;19987;-80
2024/03/09 08:39:38;;;;;;;;;;;;;;;;;;5067942;28;19928;-82
2024/03/09 08:42:06;;;;;;;;;;;;;;;;;;5065418;28;19959;-77
2024/03/09 08:44:35;;;;;;;;;;;;;;;;;;5065064;28;19924;-86
2024/03/09 08:47:03;;;;;;;;;;;;;;;;;;5060921;28;19924;-83
2024/03/09 08:49:30;;;;;;;;;;;;;;;;;;5066751;28;20064;-84
2024/03/09 08:51:58;;;;;;;;;;;;;;;;;;5067474;28;20028;-84
2024/03/09 08:54:27;;;;;;;;;;;;;;;;;;5056445;28;20026;-86
2024/03/09 08:56:55;;;;;;;;;;;;;;;;;;5065528;28;19929;-83
2024/03/09 08:59:22;;;;;;;;;;;;;;;;;;5063955;28;19928;-85
2024/03/09 09:01:49;;;;;;;;;;;;;;;;;;5064731;28;19991;-81
2024/03/09 09:04:17;;;;;;;;;;;;;;;;;;5067230;28;19925;-83
2024/03/09 09:06:45;;;;;;;;;;;;;;;;;;5062842;28;19975;-86
2024/03/09 09:09:24;;;;;;;;;;;;;;;;;;5070980;28;20400;-83
2024/03/09 09:11:51;;;;;;;;;;;;;;;;;;5063971;28;19963;-74
2024/03/09 09:14:18;;;;;;;;;;;;;;;;;;5062610;28;19994;-74
2024/03/09 09:16:47;;;;;;;;;;;;;;;;;;5059733;28;21747;-72
2024/03/09 09:19:14;;;;;;;;;;;;;;;;;;5073061;28;19973;-72
2024/03/09 09:21:41;;;;;;;;;;;;;;;;;;5055424;28;20099;-72
2024/03/09 09:24:09;;;;;;;;;;;;;;;;;;5064420;28;19937;-75
2024/03/09 09:26:36;;;;;;;;;;;;;;;;;;5065918;28;19928;-74
2024/03/09 09:29:04;;;;;;;;;;;;;;;;;;5067111;28;20009;-76
2024/03/09 09:31:32;;;;;;;;;;;;;;;;;;5063295;28;19952;-77
2024/03/09 09:33:59;;;;;;;;;;;;;;;;;;5066613;28;19935;-76
2024/03/09 09:36:29;;;;;;;;;;;;;;;;;;5063223;28;19928;-77
2024/03/09 09:38:56;;;;;;;;;;;;;;;;;;5066441;28;19929;-77
2024/03/09 09:41:23;;;;;;;;;;;;;;;;;;5050596;28;21659;-73
2024/03/09 09:43:53;;;;;;;;;;;;;;;;;;5058997;28;19984;-74
2024/03/09 09:46:20;;;;;;;;;;;;;;;;;;5060693;28;19980;-75
2024/03/09 09:48:51;;;;;;;;;;;;;;;;;;5053266;28;19933;-75
2024/03/09 09:51:18;;;;;;;;;;;;;;;;;;5055834;28;19928;-77
2024/03/09 09:53:46;;;;;;;;;;;;;;;;;;5058724;28;20264;-73
2024/03/09 09:56:14;;;;;;;;;;;;;;;;;;5056865;28;19932;-73
2024/03/09 09:58:42;;;;;;;;;;;;;;;;;;5059306;28;19929;-75
2024/03/09 10:01:09;;;;;;;;;;;;;;;;;;5059844;28;19940;-74
2024/03/09 10:03:36;;;;;;;;;;;;;;;;;;5063175;28;20021;-74
2024/03/09 10:06:03;;;;;;;;;;;;;;;;;;5060179;28;19967;-75
2024/03/09 10:08:30;;;;;;;;;;;;;;;;;;5061085;28;20056;-73
2024/03/09 10:10:57;;;;;;;;;;;;;;;;;;5063081;28;19971;-73
2024/03/09 10:13:25;;;;;;;;;;;;;;;;;;5056509;28;20310;-74
2024/03/09 10:15:52;;;;;;;;;;;;;;;;;;5067596;28;20023;-74
2024/03/09 10:18:21;;;;;;;;;;;;;;;;;;5065833;28;19995;-75
2024/03/09 10:20:49;;;;;;;;;;;;;;;;;;5060141;28;20024;-74
2024/03/09 10:23:16;;;;;;;;;;;;;;;;;;5067985;28;19940;-75
2024/03/09 10:25:43;;;;;;;;;;;;;;;;;;5061348;28;19928;-72
2024/03/09 10:28:11;;;;;;;;;;;;;;;;;;5068582;28;20661;-72
2024/03/09 10:30:38;;;;;;;;;;;;;;;;;;5065138;28;19925;-73
2024/03/09 10:33:07;;;;;;;;;;;;;;;;;;5066924;28;19928;-72
2024/03/09 10:35:34;;;;;;;;;;;;;;;;;;5052937;28;20017;-74
2024/03/09 10:38:02;;;;;;;;;;;;;;;;;;5056258;28;19971;-73
2024/03/09 10:40:29;;;;;;;;;;;;;;;;;;5057270;28;19935;-79
2024/03/09 10:42:56;;;;;;;;;;;;;;;;;;5063967;28;19940;-74
2024/03/09 10:45:29;;;;;;;;;;;;;;;;;;5064425;28;20067;-74
2024/03/09 10:47:56;;;;;;;;;;;;;;;;;;5061686;28;19929;-73
2024/03/09 10:50:23;;;;;;;;;;;;;;;;;;5065904;28;20013;-74
2024/03/09 10:52:51;;;;;;;;;;;;;;;;;;5066709;28;20055;-74
2024/03/09 10:55:19;;;;;;;;;;;;;;;;;;5066279;28;19934;-73
2024/03/09 10:57:47;;;;;;;;;;;;;;;;;;5065841;28;19932;-74
2024/03/09 11:00:28;;;;;;;;;;;;;;;;;;5074469;28;20006;-75
2024/03/09 11:02:55;;;;;;;;;;;;;;;;;;5071681;28;19935;-75
2024/03/09 11:05:22;;;;;;;;;;;;;;;;;;5072858;28;19987;-75
2024/03/09 11:07:50;;;;;;;;;;;;;;;;;;5072053;28;19937;-73
2024/03/09 11:10:17;;;;;;;;;;;;;;;;;;5074694;28;19928;-75
2024/03/09 11:12:46;;;;;;;;;;;;;;;;;;5067436;28;20009;-74
2024/03/09 11:15:13;;;;;;;;;;;;;;;;;;5069866;28;20310;-75
2024/03/09 11:17:40;;;;;;;;;;;;;;;;;;5064865;28;20244;-75
2024/03/09 11:20:07;;;;;;;;;;;;;;;;;;5066361;28;20354;-75
2024/03/09 11:22:35;;;;;;;;;;;;;;;;;;5068209;28;19968;-73
2024/03/09 11:25:02;;;;;;;;;;;;;;;;;;5073794;28;19937;-73
2024/03/09 11:27:29;;;;;;;;;;;;;;;;;;5079920;28;19931;-74
2024/03/09 11:29:56;;;;;;;;;;;;;;;;;;5064892;28;20316;-73
2024/03/09 11:32:23;;;;;;;;;;;;;;;;;;5074228;28;20456;-73
2024/03/09 11:34:50;;;;;;;;;;;;;;;;;;5071440;28;20298;-73
2024/03/09 11:37:17;;;;;;;;;;;;;;;;;;5074337;28;19935;-73
2024/03/09 11:39:44;;;;;;;;;;;;;;;;;;5071208;28;20013;-72
2024/03/09 11:42:12;;;;;;;;;;;;;;;;;;5075296;28;20352;-74
2024/03/09 11:44:39;;;;;;;;;;;;;;;;;;5065086;28;19986;-74
2024/03/09 11:47:06;;;;;;;;;;;;;;;;;;5073486;28;19954;-72
2024/03/09 11:49:34;;;;;;;;;;;;;;;;;;5073069;28;19928;-75
2024/03/09 11:52:02;;;;;;;;;;;;;;;;;;5077030;28;20367;-74
2024/03/09 11:54:29;;;;;;;;;;;;;;;;;;5076915;28;19973;-73
2024/03/09 11:56:56;;;;;;;;;;;;;;;;;;5074107;28;19928;-74
2024/03/09 11:59:24;;;;;;;;;;;;;;;;;;5066799;28;20516;-73
2024/03/09 12:01:51;;;;;;;;;;;;;;;;;;5056446;28;19929;-74
2024/03/09 12:04:18;;;;;;;;;;;;;;;;;;5064233;28;19975;-73
2024/03/09 12:06:45;;;;;;;;;;;;;;;;;;5065457;28;19936;-74
2024/03/09 12:09:13;;;;;;;;;;;;;;;;;;5068764;28;19964;-75
2024/03/09 12:11:42;;;;;;;;;;;;;;;;;;5068680;28;19938;-73
2024/03/09 12:14:09;;;;;;;;;;;;;;;;;;5065472;28;20443;-74
2024/03/09 12:16:37;;;;;;;;;;;;;;;;;;5061348;28;20287;-76
2024/03/09 12:19:06;;;;;;;;;;;;;;;;;;5068123;28;19924;-74
2024/03/09 12:21:33;;;;;;;;;;;;;;;;;;5067398;28;19930;-73
2024/03/09 12:24:00;;;;;;;;;;;;;;;;;;5067552;28;20457;-76
2024/03/09 12:26:28;;;;;;;;;;;;;;;;;;5069918;28;19981;-73
2024/03/09 12:28:57;;;;;;;;;;;;;;;;;;5061498;28;19933;-73
2024/03/09 12:31:24;;;;;;;;;;;;;;;;;;5059896;28;19929;-79
2024/03/09 12:33:51;;;;;;;;;;;;;;;;;;5059353;28;20489;-70
2024/03/09 12:36:18;;;;;;;;;;;;;;;;;;5067506;28;19928;-74
2024/03/09 12:38:46;;;;;;;;;;;;;;;;;;5056993;28;19954;-73
2024/03/09 12:41:13;;;;;;;;;;;;;;;;;;5067423;28;19995;-74
2024/03/09 12:43:42;;;;;;;;;;;;;;;;;;5060510;28;19967;-73
2024/03/09 12:46:09;;;;;;;;;;;;;;;;;;5054946;28;19933;-75
2024/03/09 12:48:38;;;;;;;;;;;;;;;;;;5065762;28;19960;-75
2024/03/09 12:51:05;;;;;;;;;;;;;;;;;;5066059;28;19960;-74
2024/03/09 12:53:33;;;;;;;;;;;;;;;;;;5067630;28;19979;-78
2024/03/09 12:56:00;;;;;;;;;;;;;;;;;;5067609;28;20567;-80
2024/03/09 12:58:30;;;;;;;;;;;;;;;;;;5063374;28;20351;-72
2024/03/09 13:00:57;;;;;;;;;;;;;;;;;;5064800;28;20307;-73
2024/03/09 13:03:26;;;;;;;;;;;;;;;;;;5060309;28;20023;-73
2024/03/09 13:05:53;;;;;;;;;;;;;;;;;;5059176;28;19924;-74
2024/03/09 13:08:24;;;;;;;;;;;;;;;;;;5062216;28;20394;-74
2024/03/09 13:10:51;;;;;;;;;;;;;;;;;;5063754;28;19936;-73
2024/03/09 13:13:19;;;;;;;;;;;;;;;;;;5062086;28;19989;-72
2024/03/09 13:15:52;;;;;;;;;;;;;;;;;;5059414;28;20377;-73
2024/03/09 13:18:22;;;;;;;;;;;;;;;;;;5054545;28;19928;-72
2024/03/09 13:20:51;;;;;;;;;;;;;;;;;;5057917;28;20008;-72
2024/03/09 13:23:21;;;;;;;;;;;;;;;;;;5062847;28;19939;-74
2024/03/09 13:25:49;;;;;;;;;;;;;;;;;;5057647;28;19983;-72
2024/03/09 13:28:16;;;;;;;;;;;;;;;;;;5059189;28;20580;-72
2024/03/09 13:30:43;;;;;;;;;;;;;;;;;;5056277;28;19971;-74
2024/03/09 13:33:15;;;;;;;;;;;;;;;;;;5053202;28;19928;-70
2024/03/09 13:35:44;;;;;;;;;;;;;;;;;;5062509;28;20051;-72
2024/03/09 13:38:11;;;;;;;;;;;;;;;;;;5059268;28;20002;-72
2024/03/09 13:40:38;;;;;;;;;;;;;;;;;;5064773;28;19943;-71
2024/03/09 13:43:05;;;;;;;;;;;;;;;;;;5052785;28;20009;-71
2024/03/09 13:45:32;;;;;;;;;;;;;;;;;;5062967;28;20229;-73
2024/03/09 13:47:59;;;;;;;;;;;;;;;;;;5066187;28;19928;-72
2024/03/09 13:50:28;;;;;;;;;;;;;;;;;;5066828;28;19928;-73
2024/03/09 13:52:55;;;;;;;;;;;;;;;;;;5062299;28;19928;-73
2024/03/09 13:55:28;;;;;;;;;;;;;;;;;;5064221;28;20350;-72
2024/03/09 13:57:55;;;;;;;;;;;;;;;;;;5060349;28;20632;-72
2024/03/09 14:00:27;;;;;;;;;;;;;;;;;;5062576;28;19983;-71
2024/03/09 14:02:56;;;;;;;;;;;;;;;;;;5060158;28;20681;-71
2024/03/09 14:05:24;;;;;;;;;;;;;;;;;;5058890;28;19983;-73
2024/03/09 14:07:56;;;;;;;;;;;;;;;;;;5058735;28;19928;-71
2024/03/09 14:10:23;;;;;;;;;;;;;;;;;;5058262;28;19940;-72
2024/03/09 14:12:53;;;;;;;;;;;;;;;;;;5060129;28;19979;-73
2024/03/09 14:15:22;;;;;;;;;;;;;;;;;;5073290;28;19935;-73
2024/03/09 14:17:49;;;;;;;;;;;;;;;;;;5077918;28;19982;-73
2024/03/09 14:20:21;;;;;;;;;;;;;;;;;;5071095;28;19928;-73
2024/03/09 14:22:51;;;;;;;;;;;;;;;;;;5074016;28;19947;-72
2024/03/09 14:25:18;;;;;;;;;;;;;;;;;;5068541;28;20296;-74
2024/03/09 14:27:47;;;;;;;;;;;;;;;;;;5063825;28;19928;-73
2024/03/09 14:30:14;;;;;;;;;;;;;;;;;;5067001;28;19963;-74
2024/03/09 14:32:41;;;;;;;;;;;;;;;;;;5072821;28;20285;-74
2024/03/09 14:35:14;;;;;;;;;;;;;;;;;;5069006;28;19928;-73
2024/03/09 14:37:43;;;;;;;;;;;;;;;;;;5065011;28;20457;-74
2024/03/09 14:40:11;;;;;;;;;;;;;;;;;;5063108;28;19928;-73
2024/03/09 14:42:39;;;;;;;;;;;;;;;;;;5059713;28;19929;-73
2024/03/09 14:45:08;;;;;;;;;;;;;;;;;;5072062;28;19924;-75
2024/03/09 14:47:36;;;;;;;;;;;;;;;;;;5068891;28;19999;-73
2024/03/09 14:50:08;;;;;;;;;;;;;;;;;;5071621;28;20482;-73
2024/03/09 14:52:35;;;;;;;;;;;;;;;;;;5058699;28;19928;-74
2024/03/09 14:55:04;;;;;;;;;;;;;;;;;;5059164;28;19943;-74
2024/03/09 14:57:32;;;;;;;;;;;;;;;;;;5065198;28;19931;-74
2024/03/09 14:59:59;;;;;;;;;;;;;;;;;;5068385;28;20423;-73
2024/03/09 15:02:25;;;;;;;;;;;;;;;;;;5065837;28;19948;-73
2024/03/09 15:04:53;;;;;;;;;;;;;;;;;;5058575;28;19928;-74
2024/03/09 15:07:20;;;;;;;;;;;;;;;;;;5061970;28;20367;-74
2024/03/09 15:09:47;;;;;;;;;;;;;;;;;;5065356;28;20025;-71
2024/03/09 15:12:18;;;;;;;;;;;;;;;;;;5062119;28;19968;-72
2024/03/09 15:14:45;;;;;;;;;;;;;;;;;;5058697;28;19928;-73
2024/03/09 15:17:15;;;;;;;;;;;;;;;;;;5062721;28;19928;-72
2024/03/09 15:19:42;;;;;;;;;;;;;;;;;;5067788;28;19928;-72
2024/03/09 15:22:14;;;;;;;;;;;;;;;;;;5065084;28;19933;-72
2024/03/09 15:24:43;;;;;;;;;;;;;;;;;;5062407;28;19936;-75
2024/03/09 15:27:10;;;;;;;;;;;;;;;;;;5065747;28;19932;-74
2024/03/09 15:29:39;;;;;;;;;;;;;;;;;;5064562;28;19936;-74
2024/03/09 15:32:09;;;;;;;;;;;;;;;;;;5064061;28;20023;-75
2024/03/09 15:34:36;;;;;;;;;;;;;;;;;;5056241;28;20457;-74
2024/03/09 15:37:03;;;;;;;;;;;;;;;;;;5055567;28;20379;-75
2024/03/09 15:39:31;;;;;;;;;;;;;;;;;;5055361;28;20071;-75
2024/03/09 15:41:59;;;;;;;;;;;;;;;;;;5065254;28;19974;-75
2024/03/09 15:44:27;;;;;;;;;;;;;;;;;;5058282;28;20141;-74
2024/03/09 15:46:54;;;;;;;;;;;;;;;;;;5064911;28;20325;-74
2024/03/09 15:49:21;;;;;;;;;;;;;;;;;;5067210;28;19928;-73
2024/03/09 15:51:48;;;;;;;;;;;;;;;;;;5068894;28;19928;-73
2024/03/09 15:54:18;;;;;;;;;;;;;;;;;;5059587;28;20245;-73
2024/03/09 15:56:47;;;;;;;;;;;;;;;;;;5060835;28;19928;-74
2024/03/09 15:59:14;;;;;;;;;;;;;;;;;;5065916;28;19998;-73
2024/03/09 16:01:41;;;;;;;;;;;;;;;;;;5058330;28;19994;-73
2024/03/09 16:04:09;;;;;;;;;;;;;;;;;;5069212;28;19936;-74
2024/03/09 16:06:40;;;;;;;;;;;;;;;;;;5069681;28;19979;-75
2024/03/09 16:09:11;;;;;;;;;;;;;;;;;;5066010;28;19929;-74
2024/03/09 16:11:40;;;;;;;;;;;;;;;;;;5069080;28;20338;-73
2024/03/09 16:14:13;;;;;;;;;;;;;;;;;;5069428;28;20415;-74
2024/03/09 16:16:41;;;;;;;;;;;;;;;;;;5065424;28;19979;-75
2024/03/09 16:19:08;;;;;;;;;;;;;;;;;;5068205;28;19977;-73
2024/03/09 16:21:37;;;;;;;;;;;;;;;;;;5068164;28;19932;-72
2024/03/09 16:24:06;;;;;;;;;;;;;;;;;;5065711;28;20019;-73
2024/03/09 16:26:34;;;;;;;;;;;;;;;;;;5060119;28;20011;-74
2024/03/09 16:29:02;;;;;;;;;;;;;;;;;;5068806;28;19928;-72
2024/03/09 16:31:30;;;;;;;;;;;;;;;;;;5066157;28;19928;-72
2024/03/09 16:33:57;;;;;;;;;;;;;;;;;;5063721;28;20001;-72
2024/03/09 16:36:24;;;;;;;;;;;;;;;;;;5063107;28;19936;-73
2024/03/09 16:38:51;;;;;;;;;;;;;;;;;;5069068;28;19929;-74
2024/03/09 16:41:22;;;;;;;;;;;;;;;;;;5067692;28;19979;-73
2024/03/09 16:43:52;;;;;;;;;;;;;;;;;;5067711;28;19928;-72
2024/03/09 16:46:20;;;;;;;;;;;;;;;;;;5068160;28;19979;-73
2024/03/09 16:48:48;;;;;;;;;;;;;;;;;;5065062;28;19928;-72
2024/03/09 16:51:15;;;;;;;;;;;;;;;;;;5056144;28;19929;-72